createdAt,value
2018-04-29T00:01:29.643Z,3.90
2018-04-29T00:04:07.905Z,4.07
2018-04-29T00:06:47.131Z,4.28
2018-04-29T00:09:27.468Z,4.68
2018-04-29T00:12:04.548Z,4.85
2018-04-29T00:14:47.012Z,5.00
2018-04-29T00:17:24.991Z,4.62
2018-04-29T00:20:03.589Z,4.10
2018-04-29T00:22:40.130Z,3.75
2018-04-29T00:25:17.504Z,4.15
2018-04-29T00:27:54.075Z,5.30
2018-04-29T00:30:30.535Z,4.18
2018-04-29T00:33:11.062Z,4.20
2018-04-29T00:35:50.455Z,4.50
2018-04-29T00:38:32.436Z,3.53
2018-04-29T00:41:10.485Z,4.70
2018-04-29T00:43:49.832Z,3.80
2018-04-29T00:46:28.224Z,4.65
2018-04-29T00:49:05.859Z,4.87
2018-04-29T00:51:49.631Z,4.75
2018-04-29T00:54:27.195Z,4.10
2018-04-29T00:57:04.004Z,4.20
2018-04-29T00:59:44.780Z,4.50
2018-04-29T01:02:22.259Z,4.22
2018-04-29T01:04:59.169Z,4.30
2018-04-29T01:07:41.710Z,4.47
2018-04-29T01:10:21.557Z,4.20
2018-04-29T01:12:59.231Z,4.15
2018-04-29T01:15:37.631Z,4.28
2018-04-29T01:18:16.650Z,5.20
2018-04-29T01:20:56.858Z,5.65
2018-04-29T01:23:34.865Z,4.57
2018-04-29T01:26:13.513Z,4.55
2018-04-29T01:28:52.337Z,4.62
2018-04-29T01:31:29.417Z,4.80
2018-04-29T01:34:08.368Z,4.62
2018-04-29T01:36:47.717Z,4.68
2018-04-29T01:39:24.372Z,5.10
2018-04-29T01:42:02.256Z,4.65
2018-04-29T01:44:38.900Z,4.57
2018-04-29T01:47:16.764Z,4.00
2018-04-29T01:49:53.611Z,4.62
2018-04-29T01:52:31.292Z,4.40
2018-04-29T01:55:10.872Z,5.60
2018-04-29T01:57:46.986Z,5.40
2018-04-29T02:00:24.008Z,4.87
2018-04-29T02:03:00.985Z,4.97
2018-04-29T02:05:38.281Z,5.07
2018-04-29T02:08:15.095Z,4.85
2018-04-29T02:10:57.994Z,5.25
2018-04-29T02:13:35.800Z,5.10
2018-04-29T02:16:15.010Z,5.70
2018-04-29T02:18:52.839Z,5.25
2018-04-29T02:21:31.253Z,4.57
2018-04-29T02:24:09.101Z,6.12
2018-04-29T02:26:47.790Z,5.30
2018-04-29T02:29:27.287Z,4.72
2018-04-29T02:32:06.317Z,4.68
2018-04-29T02:34:45.197Z,5.18
2018-04-29T02:37:22.649Z,5.68
2018-04-29T02:39:58.661Z,5.35
2018-04-29T02:42:34.164Z,5.15
2018-04-29T02:45:14.815Z,5.43
2018-04-29T02:47:52.983Z,4.65
2018-04-29T02:50:29.735Z,5.30
2018-04-29T02:53:07.751Z,5.20
2018-04-29T02:55:45.381Z,5.90
2018-04-29T02:58:22.223Z,6.65
2018-04-29T03:00:58.240Z,5.75
2018-04-29T03:03:33.995Z,6.57
2018-04-29T03:06:11.221Z,7.80
2018-04-29T03:08:49.375Z,7.07
2018-04-29T03:11:28.818Z,7.25
2018-04-29T03:14:05.611Z,7.22
2018-04-29T03:16:45.684Z,6.70
2018-04-29T03:19:22.218Z,7.10
2018-04-29T03:21:58.759Z,6.53
2018-04-29T03:24:37.340Z,6.32
2018-04-29T03:27:13.883Z,6.40
2018-04-29T03:29:57.973Z,5.20
2018-04-29T03:32:34.500Z,7.35
2018-04-29T03:35:12.023Z,5.45
2018-04-29T03:37:49.068Z,5.95
2018-04-29T03:40:29.086Z,5.80
2018-04-29T03:43:06.439Z,5.95
2018-04-29T03:45:44.972Z,6.75
2018-04-29T03:48:27.940Z,6.10
2018-04-29T03:50:57.938Z,6.28
2018-04-29T03:53:33.761Z,6.85
2018-04-29T03:56:08.562Z,6.32
2018-04-29T03:58:55.985Z,5.90
2018-04-29T04:01:51.281Z,6.70
2018-04-29T04:04:21.101Z,5.65
2018-04-29T04:06:57.932Z,6.22
2018-04-29T04:09:36.505Z,5.72
2018-04-29T04:12:16.177Z,6.32
2018-04-29T04:14:53.384Z,6.87
2018-04-29T04:17:31.943Z,6.47
2018-04-29T04:20:11.256Z,4.95
2018-04-29T04:22:49.388Z,4.03
2018-04-29T04:25:27.520Z,5.03
2018-04-29T04:28:04.035Z,5.60
2018-04-29T04:30:40.745Z,5.22
2018-04-29T04:33:16.127Z,5.32
2018-04-29T04:35:53.055Z,4.80
2018-04-29T04:38:30.004Z,4.65
2018-04-29T04:41:08.438Z,4.53
2018-04-29T04:43:45.285Z,5.45
2018-04-29T04:46:25.799Z,6.10
2018-04-29T04:49:05.269Z,5.57
2018-04-29T04:51:43.275Z,5.45
2018-04-29T04:54:20.686Z,5.78
2018-04-29T04:57:00.327Z,5.10
2018-04-29T04:59:38.800Z,6.07
2018-04-29T05:02:16.422Z,4.93
2018-04-29T05:04:53.192Z,6.12
2018-04-29T05:07:35.232Z,5.57
2018-04-29T05:10:13.322Z,5.78
2018-04-29T05:12:50.608Z,5.18
2018-04-29T05:15:26.687Z,4.90
2018-04-29T05:18:02.216Z,5.03
2018-04-29T05:20:40.155Z,5.53
2018-04-29T05:23:19.032Z,4.87
2018-04-29T05:25:56.513Z,5.32
2018-04-29T05:28:26.385Z,4.25
2018-04-29T05:30:56.633Z,5.05
2018-04-29T05:33:26.614Z,4.72
2018-04-29T05:35:56.187Z,5.32
2018-04-29T05:38:33.104Z,5.45
2018-04-29T05:41:08.838Z,5.32
2018-04-29T05:43:44.088Z,5.00
2018-04-29T05:46:23.346Z,5.20
2018-04-29T05:49:00.388Z,4.93
2018-04-29T06:32:10.091Z,6.10
2018-04-29T06:34:47.669Z,6.30
2018-04-29T06:37:26.509Z,5.72
2018-04-29T06:40:06.399Z,6.43
2018-04-29T06:42:45.582Z,5.80
2018-04-29T06:45:22.780Z,6.70
2018-04-29T06:48:00.250Z,5.85
2018-04-29T06:50:38.574Z,6.70
2018-04-29T06:53:09.153Z,6.43
2018-04-29T06:55:41.006Z,6.68
2018-04-29T06:58:11.798Z,6.60
2018-04-29T07:00:42.210Z,6.87
2018-04-29T07:03:12.663Z,6.37
2018-04-29T07:05:41.898Z,7.05
2018-04-29T07:08:19.313Z,7.15
2018-04-29T07:10:58.958Z,6.70
2018-04-29T07:13:37.976Z,7.10
2018-04-29T07:16:14.731Z,6.65
2018-04-29T07:18:44.610Z,8.80
2018-04-29T07:21:14.751Z,7.75
2018-04-29T07:23:49.195Z,7.40
2018-04-29T07:26:18.724Z,7.40
2018-04-29T07:28:55.139Z,7.05
2018-04-29T07:31:39.273Z,7.05
2018-04-29T07:34:11.863Z,6.35
2018-04-29T07:36:43.544Z,7.05
2018-04-29T07:39:13.570Z,7.40
2018-04-29T07:41:44.662Z,7.20
2018-04-29T07:44:17.442Z,8.60
2018-04-29T07:46:47.457Z,7.25
2018-04-29T07:49:17.213Z,9.23
2018-04-29T07:51:47.947Z,7.05
2018-04-29T07:54:20.113Z,7.72
2018-04-29T07:56:52.663Z,7.50
2018-04-29T07:59:22.585Z,7.10
2018-04-29T08:01:52.924Z,7.93
2018-04-29T08:04:25.536Z,7.90
2018-04-29T08:06:54.738Z,7.43
2018-04-29T08:09:23.607Z,8.07
2018-04-29T08:11:52.961Z,8.32
2018-04-29T08:14:30.416Z,8.98
2018-04-29T08:17:06.296Z,8.73
2018-04-29T08:19:46.087Z,8.25
2018-04-29T08:22:23.413Z,8.43
2018-04-29T08:25:02.636Z,10.10
2018-04-29T08:27:39.906Z,8.45
2018-04-29T08:30:20.605Z,9.00
2018-04-29T08:32:58.011Z,8.50
2018-04-29T08:35:31.812Z,8.10
2018-04-29T08:38:01.634Z,10.00
2018-04-29T08:40:32.465Z,9.18
2018-04-29T08:43:02.371Z,7.80
2018-04-29T08:45:32.022Z,8.57
2018-04-29T08:48:02.573Z,8.82
2018-04-29T08:50:32.478Z,9.55
2018-04-29T08:53:03.780Z,9.18
2018-04-29T08:55:33.346Z,8.48
2018-04-29T08:58:04.460Z,10.05
2018-04-29T09:00:35.146Z,9.23
2018-04-29T09:03:07.114Z,8.45
2018-04-29T09:05:37.043Z,9.93
2018-04-29T09:08:08.181Z,9.57
2018-04-29T09:10:40.091Z,8.30
2018-04-29T09:13:10.270Z,8.50
2018-04-29T09:15:40.906Z,7.65
2018-04-29T09:18:11.839Z,7.20
2018-04-29T09:20:41.790Z,6.83
2018-04-29T09:23:12.077Z,7.57
2018-04-29T09:25:41.709Z,7.03
2018-04-29T09:28:12.653Z,5.40
2018-04-29T09:30:43.150Z,6.77
2018-04-29T09:33:15.403Z,6.97
2018-04-29T09:35:47.406Z,6.17
2018-04-29T09:38:20.471Z,6.80
2018-04-29T09:40:53.743Z,5.83
2018-04-29T09:43:24.567Z,5.77
2018-04-29T09:45:55.207Z,5.70
2018-04-29T09:48:26.113Z,6.90
2018-04-29T09:50:58.382Z,6.40
2018-04-29T09:53:28.292Z,6.93
2018-04-29T09:56:07.338Z,7.03
2018-04-29T09:58:45.093Z,6.50
2018-04-29T10:01:25.510Z,6.47
2018-04-29T10:04:08.908Z,6.97
2018-04-29T10:06:47.234Z,6.97
2018-04-29T10:09:16.200Z,7.10
2018-04-29T10:11:47.122Z,7.17
2018-04-29T10:14:18.195Z,7.22
2018-04-29T10:16:47.342Z,7.97
2018-04-29T10:19:17.249Z,6.70
2018-04-29T10:21:47.811Z,6.65
2018-04-29T10:24:18.622Z,6.22
2018-04-29T10:26:49.079Z,5.85
2018-04-29T10:29:19.994Z,6.10
2018-04-29T10:31:49.978Z,6.07
2018-04-29T10:34:20.095Z,6.10
2018-04-29T10:36:52.271Z,6.93
2018-04-29T10:39:22.616Z,5.70
2018-04-29T10:41:52.814Z,6.10
2018-04-29T10:44:22.675Z,6.00
2018-04-29T10:46:53.490Z,6.13
2018-04-29T10:49:23.697Z,5.43
2018-04-29T10:51:53.939Z,4.67
2018-04-29T10:54:24.202Z,5.20
2018-04-29T10:56:54.127Z,6.33
2018-04-29T10:59:23.885Z,5.47
2018-04-29T11:01:53.877Z,5.40
2018-04-29T11:04:24.110Z,5.53
2018-04-29T11:06:54.215Z,5.60
2018-04-29T11:09:24.535Z,7.10
2018-04-29T11:11:55.308Z,5.83
2018-04-29T11:14:25.750Z,6.60
2018-04-29T11:16:56.675Z,5.63
2018-04-29T11:19:27.590Z,5.90
2018-04-29T11:21:59.723Z,6.47
2018-04-29T11:24:32.044Z,6.43
2018-04-29T11:27:03.729Z,6.90
2018-04-29T11:29:33.501Z,6.07
2018-04-29T11:32:03.956Z,6.63
2018-04-29T11:34:34.801Z,5.63
2018-04-29T11:37:12.640Z,6.33
2018-04-29T11:39:43.947Z,5.47
2018-04-29T11:42:14.497Z,7.20
2018-04-29T11:44:45.251Z,5.80
2018-04-29T11:47:16.273Z,6.60
2018-04-29T11:49:47.605Z,6.00
2018-04-29T11:52:24.653Z,6.67
2018-04-29T11:54:56.486Z,6.10
2018-04-29T11:57:28.061Z,6.83
2018-04-29T11:59:59.685Z,6.97
2018-04-29T12:02:30.469Z,6.80
2018-04-29T12:05:00.941Z,6.50
2018-04-29T12:07:32.325Z,6.30
2018-04-29T12:10:04.428Z,6.90
2018-04-29T12:12:35.872Z,6.10
2018-04-29T12:15:07.068Z,5.63
2018-04-29T12:17:38.090Z,5.10
2018-04-29T12:20:08.571Z,5.83
2018-04-29T12:22:39.757Z,5.10
2018-04-29T12:25:10.986Z,5.50
2018-04-29T12:27:42.151Z,6.03
2018-04-29T12:30:13.243Z,5.20
2018-04-29T12:32:43.801Z,4.80
2018-04-29T12:35:14.854Z,5.13
2018-04-29T12:37:46.262Z,5.80
2018-04-29T12:40:17.953Z,4.70
2018-04-29T12:42:49.067Z,5.40
2018-04-29T12:45:19.585Z,4.93
2018-04-29T12:47:50.974Z,4.03
2018-04-29T12:50:22.914Z,4.20
2018-04-29T12:52:54.286Z,4.70
2018-04-29T12:55:24.747Z,5.20
2018-04-29T12:57:57.425Z,4.60
2018-04-29T13:00:27.801Z,5.20
2018-04-29T13:05:40.455Z,4.57
2018-04-29T13:08:11.552Z,4.87
2018-04-29T13:10:43.382Z,4.60
2018-04-29T13:13:15.541Z,5.20
2018-04-29T13:15:51.897Z,4.10
2018-04-29T13:18:22.155Z,3.93
2018-04-29T13:20:58.233Z,4.17
2018-04-29T13:23:28.783Z,3.43
2018-04-29T13:26:00.549Z,4.57
2018-04-29T13:28:31.647Z,4.33
2018-04-29T13:31:03.171Z,5.20
2018-04-29T13:33:34.339Z,4.80
2018-04-29T13:36:07.209Z,4.23
2018-04-29T13:38:37.925Z,3.87
2018-04-29T13:41:08.660Z,4.00
2018-04-29T13:43:48.609Z,3.57
2018-04-29T13:46:20.837Z,3.90
2018-04-29T13:48:52.586Z,3.17
2018-04-29T13:51:24.133Z,3.67
2018-04-29T13:53:56.033Z,4.10
2018-04-29T13:56:29.047Z,3.90
2018-04-29T13:59:01.445Z,3.90
2018-04-29T14:01:32.428Z,3.60
2018-04-29T14:04:03.390Z,3.80
2018-04-29T14:06:34.812Z,4.07
2018-04-29T14:09:05.297Z,3.87
2018-04-29T14:11:37.184Z,3.83
2018-04-29T14:14:08.529Z,3.50
2018-04-29T14:16:40.131Z,4.03
2018-04-29T14:19:11.892Z,3.90
2018-04-29T14:21:43.005Z,4.30
2018-04-29T14:24:20.141Z,4.87
2018-04-29T14:26:51.513Z,3.90
2018-04-29T14:29:22.129Z,4.03
2018-04-29T14:32:02.495Z,3.83
2018-04-29T14:34:33.619Z,4.60
2018-04-29T14:37:04.413Z,4.50
2018-04-29T14:39:41.334Z,3.73
2018-04-29T14:42:12.278Z,4.30
2018-04-29T14:44:42.738Z,3.87
2018-04-29T14:47:12.444Z,4.03
2018-04-29T14:49:43.337Z,3.20
2018-04-29T14:52:13.152Z,3.73
2018-04-29T14:54:56.875Z,4.30
2018-04-29T14:57:36.678Z,3.87
2018-04-29T15:00:15.817Z,4.27
2018-04-29T15:02:46.365Z,4.70
2018-04-29T15:05:17.414Z,4.00
2018-04-29T15:07:46.531Z,4.10
2018-04-29T15:10:22.907Z,4.23
2018-04-29T15:12:52.881Z,3.37
2018-04-29T15:15:23.325Z,4.00
2018-04-29T15:17:52.503Z,4.20
2018-04-29T15:20:30.251Z,3.87
2018-04-29T15:23:08.105Z,4.00
2018-04-29T15:25:47.660Z,3.50
2018-04-29T15:28:25.580Z,3.40
2018-04-29T15:30:54.682Z,4.50
2018-04-29T15:33:24.558Z,3.73
2018-04-29T15:35:54.354Z,3.53
2018-04-29T15:38:25.027Z,3.23
2018-04-29T15:40:55.130Z,3.10
2018-04-29T15:43:34.502Z,3.40
2018-04-29T15:46:03.603Z,5.13
2018-04-29T15:48:40.724Z,3.80
2018-04-29T15:51:11.283Z,3.80
2018-04-29T15:53:40.922Z,4.03
2018-04-29T15:56:21.168Z,4.40
2018-04-29T15:58:50.196Z,5.80
2018-04-29T16:01:21.255Z,3.90
2018-04-29T16:03:57.757Z,4.60
2018-04-29T16:06:27.242Z,3.97
2018-04-29T16:09:00.863Z,3.50
2018-04-29T16:11:30.474Z,4.20
2018-04-29T16:14:00.623Z,3.80
2018-04-29T16:16:40.368Z,3.73
2018-04-29T16:19:13.292Z,3.77
2018-04-29T16:21:48.236Z,3.17
2018-04-29T16:24:18.138Z,3.53
2018-04-29T16:26:51.928Z,3.77
2018-04-29T16:29:21.198Z,3.67
2018-04-29T16:31:52.667Z,3.67
2018-04-29T16:34:31.004Z,3.03
2018-04-29T16:37:00.740Z,3.80
2018-04-29T16:39:31.217Z,2.90
2018-04-29T16:42:01.085Z,3.40
2018-04-29T16:44:33.196Z,3.37
2018-04-29T16:47:03.253Z,3.00
2018-04-29T16:49:33.517Z,3.63
2018-04-29T16:52:03.261Z,3.23
2018-04-29T16:54:34.662Z,3.60
2018-04-29T16:57:04.374Z,3.73
2018-04-29T16:59:34.800Z,3.50
2018-04-29T17:02:04.594Z,3.67
2018-04-29T17:04:34.699Z,3.77
2018-04-29T17:07:04.684Z,3.70
2018-04-29T17:09:35.796Z,2.90
2018-04-29T17:12:07.935Z,3.20
2018-04-29T17:14:38.172Z,3.43
2018-04-29T17:17:10.717Z,3.93
2018-04-29T17:19:42.946Z,3.70
2018-04-29T17:22:13.703Z,3.53
2018-04-29T17:24:43.484Z,4.03
2018-04-29T17:27:13.554Z,4.23
2018-04-29T17:29:42.553Z,3.40
2018-04-29T17:32:20.970Z,4.07
2018-04-29T17:34:58.175Z,5.13
2018-04-29T17:37:27.997Z,3.83
2018-04-29T17:39:58.146Z,3.83
2018-04-29T17:42:29.207Z,4.20
2018-04-29T17:44:59.527Z,4.17
2018-04-29T17:47:29.886Z,4.33
2018-04-29T17:50:00.363Z,4.63
2018-04-29T17:52:31.186Z,5.40
2018-04-29T17:55:01.978Z,5.87
2018-04-29T17:57:31.894Z,5.17
2018-04-29T18:00:02.674Z,4.17
2018-04-29T18:02:34.200Z,9.80
2018-04-29T18:05:06.511Z,6.07
2018-04-29T18:07:39.291Z,5.20
2018-04-29T18:10:12.060Z,5.00
2018-04-29T18:12:43.107Z,4.80
2018-04-29T18:15:14.298Z,4.70
2018-04-29T18:17:44.463Z,4.57
2018-04-29T18:20:15.246Z,5.13
2018-04-29T18:22:45.531Z,5.43
2018-04-29T18:25:16.338Z,5.17
2018-04-29T18:27:46.537Z,5.67
2018-04-29T18:30:17.690Z,5.33
2018-04-29T18:32:47.860Z,5.33
2018-04-29T18:35:17.595Z,5.37
2018-04-29T18:37:48.171Z,5.90
2018-04-29T18:40:17.901Z,6.00
2018-04-29T18:42:49.039Z,5.70
2018-04-29T18:45:19.656Z,5.03
2018-04-29T18:47:48.714Z,5.50
2018-04-29T18:50:26.692Z,5.63
2018-04-29T18:52:56.558Z,4.33
2018-04-29T18:55:26.689Z,5.30
2018-04-29T18:58:02.551Z,7.67
2018-04-29T19:00:40.575Z,9.17
2018-04-29T19:03:10.718Z,8.53
2018-04-29T19:05:47.430Z,6.03
2018-04-29T19:21:23.722Z,5.20
2018-04-29T19:23:53.483Z,5.80
2018-04-29T19:26:21.771Z,4.87
2018-04-29T19:28:59.435Z,4.60
2018-04-29T19:31:29.479Z,5.77
2018-04-29T19:33:59.417Z,5.67
2018-04-29T19:36:30.257Z,5.70
2018-04-29T19:39:00.777Z,4.87
2018-04-29T19:41:30.819Z,5.73
2018-04-29T19:44:01.253Z,5.70
2018-04-29T19:46:30.476Z,5.20
2018-04-29T19:49:08.981Z,6.43
2018-04-29T19:51:48.586Z,5.50
2018-04-29T19:54:26.655Z,4.37
2018-04-29T19:56:56.428Z,4.93
2018-04-29T19:59:26.245Z,4.50
2018-04-29T20:01:56.205Z,4.80
2018-04-29T20:04:26.580Z,4.47
2018-04-29T20:06:57.354Z,4.50
2018-04-29T20:09:27.881Z,4.60
2018-04-29T20:12:05.026Z,5.27
2018-04-29T20:14:43.931Z,4.60
2018-04-29T20:17:26.226Z,4.87
2018-04-29T20:20:02.795Z,5.30
2018-04-29T20:22:32.750Z,5.00
2018-04-29T20:25:11.041Z,5.00
2018-04-29T20:27:50.891Z,5.57
2018-04-29T20:30:27.344Z,5.60
2018-04-29T20:33:03.516Z,5.60
2018-04-29T20:35:40.456Z,4.60
2018-04-29T20:38:18.333Z,4.93
2018-04-29T20:40:55.913Z,5.43
2018-04-29T20:43:33.489Z,6.80
2018-04-29T20:46:13.448Z,7.33
2018-04-29T20:48:51.446Z,7.47
2018-04-29T20:51:28.473Z,7.13
2018-04-29T20:54:07.236Z,7.63
2018-04-29T20:56:45.614Z,7.87
2018-04-29T20:59:23.427Z,7.93
2018-04-29T21:02:03.156Z,8.40
2018-04-29T21:04:33.160Z,9.40
2018-04-29T21:07:02.702Z,11.47
2018-04-29T21:09:33.072Z,12.57
2018-04-29T21:12:10.187Z,14.87
2018-04-29T21:14:47.532Z,16.90
2018-04-29T21:17:27.785Z,17.60
2018-04-29T21:19:57.036Z,21.23
2018-04-29T21:22:26.718Z,21.33
2018-04-29T21:24:56.540Z,21.60
2018-04-29T21:27:25.484Z,22.43
2018-04-29T21:29:55.067Z,23.17
2018-04-29T21:32:25.297Z,25.77
2018-04-29T21:35:03.968Z,25.40
2018-04-29T21:37:35.143Z,26.92
2018-04-29T21:40:06.641Z,27.73
2018-04-29T21:45:13.654Z,30.40
2018-04-29T21:47:44.306Z,29.65
2018-04-29T21:50:14.789Z,32.55
2018-04-29T21:52:45.803Z,33.95
2018-04-29T21:55:18.234Z,32.20
2018-04-29T21:57:49.903Z,30.35
2018-04-29T22:00:21.453Z,22.23
2018-04-29T22:02:53.173Z,26.20
2018-04-29T22:05:25.140Z,23.05
2018-04-29T22:07:56.248Z,25.08
2018-04-29T22:10:26.614Z,26.48
2018-04-29T22:12:57.770Z,28.58
2018-04-29T22:15:29.792Z,27.58
2018-04-29T22:18:00.326Z,29.25
2018-04-29T22:20:31.143Z,27.08
2018-04-29T22:23:02.301Z,30.80
2018-04-29T22:25:33.237Z,30.20
2018-04-29T22:28:04.060Z,32.25
2018-04-29T22:30:36.203Z,28.42
2018-04-29T22:33:07.253Z,29.55
2018-04-29T22:35:37.949Z,26.00
2018-04-29T22:38:08.571Z,24.50
2018-04-29T22:40:37.589Z,23.92
2018-04-29T22:43:07.711Z,24.92
2018-04-29T22:45:39.859Z,27.08
2018-04-29T22:48:09.651Z,25.15
2018-04-29T22:50:40.637Z,24.05
2018-04-29T22:53:10.768Z,19.75
2018-04-29T22:55:40.921Z,16.05
2018-04-29T22:58:11.335Z,20.60
2018-04-29T23:00:41.090Z,17.83
2018-04-29T23:03:11.689Z,18.23
2018-04-29T23:05:44.298Z,20.17
2018-04-29T23:08:14.190Z,16.48
2018-04-29T23:10:44.348Z,17.33
2018-04-29T23:13:16.266Z,16.20
2018-04-29T23:15:47.221Z,16.05
2018-04-29T23:18:17.444Z,17.35
2018-04-29T23:20:47.921Z,15.75
2018-04-29T23:23:18.169Z,15.35
2018-04-29T23:25:49.037Z,11.75
2018-04-29T23:28:21.002Z,10.90
2018-04-29T23:30:51.842Z,10.00
2018-04-29T23:33:21.527Z,10.10
2018-04-29T23:35:52.580Z,12.15
2018-04-29T23:38:24.354Z,12.00
2018-04-29T23:40:54.618Z,12.27
2018-04-29T23:43:26.458Z,13.80
2018-04-29T23:45:58.424Z,13.73
2018-04-29T23:48:27.947Z,13.77
2018-04-29T23:50:57.756Z,13.00
2018-04-29T23:53:41.210Z,13.93
2018-04-29T23:56:18.773Z,13.75
2018-04-29T23:58:48.520Z,13.95
